Time;durP1;ratioP1;P1;durP2;ratioP2;P2;SDS_P1;SDS_P2;PMS_P1;PMS_P2;Temp;Humidity;BMP_temperature;BMP_pressure;BME280_temperature;BME280_humidity;BME280_pressure;Samples;Min_cycle;Max_cycle;Signal;HPM_P1;HPM_P2
2023/12/21 00:00:06;;;;;;;10.00;2.10;;;;;;;3.15;100.00;98826.22;5047251;28;20036;-69
2023/12/21 00:02:33;;;;;;;8.40;1.77;;;;;;;3.08;100.00;98818.22;5084978;28;20545;-69
2023/12/21 00:04:58;;;;;;;7.63;1.90;;;;;;;2.94;100.00;98795.25;5081507;28;20040;-69
2023/12/21 00:07:25;;;;;;;8.02;2.10;;;;;;;3.05;100.00;98822.09;5046233;28;20039;-68
2023/12/21 00:09:51;;;;;;;8.13;1.77;;;;;;;3.00;100.00;98811.22;5076202;28;20028;-69
2023/12/21 00:12:16;;;;;;;11.18;2.22;;;;;;;2.90;100.00;98786.88;5077954;28;20036;-68
2023/12/21 00:14:43;;;;;;;15.73;2.15;;;;;;;2.90;100.00;98791.38;5060474;28;20047;-68
2023/12/21 00:17:08;;;;;;;9.25;2.28;;;;;;;2.69;100.00;98763.91;5077852;28;20032;-69
2023/12/21 00:19:33;;;;;;;14.13;2.22;;;;;;;2.77;100.00;98786.81;5060393;28;20029;-68
2023/12/21 00:21:59;;;;;;;14.77;2.60;;;;;;;2.67;100.00;98786.38;5078142;28;20047;-68
2023/12/21 00:24:24;;;;;;;13.30;2.15;;;;;;;2.44;100.00;98760.94;5059924;28;20033;-68
2023/12/21 00:26:49;;;;;;;11.65;2.00;;;;;;;2.49;100.00;98773.63;5059569;28;20121;-68
2023/12/21 00:29:15;;;;;;;7.43;1.70;;;;;;;2.41;100.00;98763.97;5043472;28;20462;-68
2023/12/21 00:31:40;;;;;;;12.45;2.05;;;;;;;2.30;100.00;98753.94;5059616;28;20062;-68
2023/12/21 00:34:06;;;;;;;11.68;2.50;;;;;;;2.25;100.00;98743.91;5026662;28;20033;-68
2023/12/21 00:36:31;;;;;;;8.73;1.77;;;;;;;2.21;100.00;98745.28;5077454;28;20028;-68
2023/12/21 00:38:58;;;;;;;20.55;2.25;;;;;;;2.04;100.00;98714.81;5076792;28;20055;-68
2023/12/21 00:41:23;;;;;;;10.68;2.50;;;;;;;2.17;100.00;98732.63;5056096;28;20356;-68
2023/12/21 00:43:48;;;;;;;12.35;2.35;;;;;;;1.95;100.00;98708.00;5053495;28;20032;-68
2023/12/21 00:46:14;;;;;;;12.23;2.20;;;;;;;2.03;100.00;98726.44;5053995;28;20033;-71
2023/12/21 00:48:40;;;;;;;12.80;2.60;;;;;;;1.95;100.00;98721.28;5056112;28;20031;-69
2023/12/21 00:51:06;;;;;;;11.50;2.17;;;;;;;1.89;100.00;98709.63;5057016;28;20097;-68
2023/12/21 00:53:31;;;;;;;12.02;2.10;;;;;;;1.67;100.00;98685.00;5072352;28;20028;-68
2023/12/21 00:55:57;;;;;;;12.48;2.70;;;;;;;1.66;100.00;98699.28;5055849;28;20029;-69
2023/12/21 00:58:22;;;;;;;9.57;2.08;;;;;;;1.71;100.00;98726.00;5055328;28;20112;-69
2023/12/21 01:00:48;;;;;;;9.35;2.25;;;;;;;1.56;100.00;98710.22;5056609;28;20025;-70
2023/12/21 01:03:14;;;;;;;10.02;2.35;;;;;;;1.61;100.00;98736.13;5038119;28;20167;-69
2023/12/21 01:05:39;;;;;;;9.52;2.10;;;;;;;1.44;100.00;98726.81;5055194;28;20025;-69
2023/12/21 01:08:05;;;;;;;11.45;2.10;;;;;;;1.53;100.00;98728.34;5071736;28;20029;-69
2023/12/21 01:10:33;;;;;;;14.38;2.45;;;;;;;1.56;100.00;98725.31;5056090;28;20021;-69
2023/12/21 01:12:58;;;;;;;12.35;2.42;;;;;;;1.52;100.00;98729.31;5056722;28;20055;-69
2023/12/21 01:15:23;;;;;;;10.35;1.92;;;;;;;1.37;100.00;98701.09;5072550;28;20035;-69
2023/12/21 01:17:49;;;;;;;11.40;2.08;;;;;;;1.31;100.00;98690.44;5055798;28;20495;-69
2023/12/21 01:20:14;;;;;;;10.35;2.63;;;;;;;1.29;100.00;98697.75;5038703;28;20040;-70
2023/12/21 01:22:40;;;;;;;11.43;2.60;;;;;;;1.38;100.00;98708.00;5055712;28;20033;-71
2023/12/21 01:25:05;;;;;;;13.52;2.42;;;;;;;1.36;100.00;98718.00;5055563;28;20529;-70
2023/12/21 01:27:31;;;;;;;10.32;2.10;;;;;;;1.36;100.00;98704.75;5072077;28;20585;-70
2023/12/21 01:29:56;;;;;;;11.93;2.30;;;;;;;1.33;100.00;98705.13;5039635;28;20044;-69
2023/12/21 01:32:21;;;;;;;13.57;2.10;;;;;;;1.22;100.00;98676.50;5058587;28;20059;-69
2023/12/21 01:34:47;;;;;;;9.55;2.28;;;;;;;1.23;100.00;98672.84;5057449;28;20033;-69
2023/12/21 01:37:12;;;;;;;10.55;2.55;;;;;;;1.24;100.00;98681.63;5057020;28;20040;-70
2023/12/21 01:39:38;;;;;;;14.10;2.53;;;;;;;1.16;100.00;98677.28;5057283;28;20108;-69
2023/12/21 01:42:03;;;;;;;12.20;2.25;;;;;;;1.05;100.00;98656.59;4966447;28;2202938;-70
2023/12/21 01:44:29;;;;;;;11.38;1.92;;;;;;;1.12;100.00;98671.53;5060024;28;20679;-69
2023/12/21 01:46:54;;;;;;;11.48;2.10;;;;;;;1.11;100.00;98671.72;5059892;28;20086;-70
2023/12/21 01:49:21;;;;;;;12.50;2.40;;;;;;;1.10;100.00;98660.31;5060070;28;20124;-69
2023/12/21 01:51:46;;;;;;;15.85;3.13;;;;;;;1.10;100.00;98657.66;5061171;28;20032;-68
2023/12/21 01:54:12;;;;;;;9.27;2.05;;;;;;;1.10;100.00;98662.97;5059457;28;20025;-69
2023/12/21 01:56:38;;;;;;;8.23;2.17;;;;;;;0.95;100.00;98646.31;5060382;28;20029;-69
2023/12/21 01:59:03;;;;;;;12.30;2.25;;;;;;;1.01;100.00;98642.09;5060548;28;20455;-69
2023/12/21 02:01:30;;;;;;;9.05;1.83;;;;;;;1.14;100.00;98660.75;5075298;28;20148;-68
2023/12/21 02:03:55;;;;;;;15.75;2.13;;;;;;;1.09;100.00;98645.44;5060923;28;20083;-68
2023/12/21 02:06:22;;;;;;;11.93;2.40;;;;;;;1.21;100.00;98650.22;5060806;28;20033;-68
2023/12/21 02:08:47;;;;;;;10.95;2.30;;;;;;;1.24;100.00;98655.94;5059832;28;20562;-68
2023/12/21 02:11:12;;;;;;;10.77;2.22;;;;;;;1.30;100.00;98646.41;5059201;28;20031;-68
2023/12/21 02:13:38;;;;;;;9.52;2.13;;;;;;;1.33;100.00;98630.94;5060466;28;20123;-68
2023/12/21 02:16:12;;;;;;;9.00;1.98;;;;;;;1.43;100.00;98622.66;5042859;28;20052;-71
2023/12/21 02:18:37;;;;;;;10.35;2.10;;;;;;;1.52;100.00;98612.72;5076083;28;20079;-69
2023/12/21 02:21:04;;;;;;;13.55;2.50;;;;;;;1.59;100.00;98611.75;5057944;28;20492;-69
2023/12/21 02:23:34;;;;;;;12.32;2.63;;;;;;;1.64;100.00;98608.50;5060446;28;20097;-70
2023/12/21 02:26:00;;;;;;;17.25;3.28;;;;;;;1.66;100.00;98598.53;5060803;28;20040;-68
2023/12/21 02:28:25;;;;;;;16.58;2.83;;;;;;;1.70;100.00;98597.13;5061246;28;20029;-69
2023/12/21 02:30:50;;;;;;;14.05;2.72;;;;;;;1.71;100.00;98590.78;5060436;28;20039;-70
2023/12/21 02:33:16;;;;;;;11.65;2.65;;;;;;;1.74;100.00;98569.19;5060039;28;20110;-69
2023/12/21 02:35:42;;;;;;;16.90;2.83;;;;;;;1.76;100.00;98577.78;5058834;28;20029;-69
2023/12/21 02:38:07;;;;;;;20.08;3.28;;;;;;;1.69;100.00;98571.63;5043062;28;20032;-69
2023/12/21 02:40:33;;;;;;;18.27;3.60;;;;;;;1.77;100.00;98574.09;5064615;28;20056;-69
2023/12/21 02:42:59;;;;;;;18.75;3.10;;;;;;;1.79;100.00;98558.84;5082129;28;20068;-69
2023/12/21 02:45:24;;;;;;;19.42;3.17;;;;;;;1.73;100.00;98543.72;5045185;28;20051;-70
2023/12/21 02:47:49;;;;;;;24.10;4.32;;;;;;;1.86;100.00;98556.22;5045952;28;20055;-68
2023/12/21 02:50:15;;;;;;;23.33;3.60;;;;;;;1.79;100.00;98540.28;5079642;28;20032;-68
2023/12/21 02:52:40;;;;;;;26.70;4.00;;;;;;;1.84;100.00;98544.97;5062223;28;20039;-69
2023/12/21 02:55:06;;;;;;;24.75;4.75;;;;;;;1.82;100.00;98537.22;5062057;28;20024;-69
2023/12/21 02:57:31;;;;;;;24.70;3.20;;;;;;;1.82;100.00;98539.88;5061608;28;20093;-69
2023/12/21 02:59:56;;;;;;;21.38;3.72;;;;;;;1.83;100.00;98544.16;5058577;28;20102;-69
2023/12/21 03:02:22;;;;;;;24.83;4.07;;;;;;;1.84;100.00;98537.81;5078272;28;20028;-69
2023/12/21 03:04:47;;;;;;;26.98;4.10;;;;;;;1.41;100.00;98455.91;5044883;28;20024;-70
2023/12/21 03:07:12;;;;;;;28.75;3.75;;;;;;;1.88;100.00;98522.34;5045310;28;20039;-69
2023/12/21 03:09:38;;;;;;;22.17;3.58;;;;;;;1.87;100.00;98515.41;5079444;28;20037;-69
2023/12/21 03:12:04;;;;;;;25.65;3.85;;;;;;;1.79;100.00;98497.84;5062026;28;20132;-69
2023/12/21 03:14:29;;;;;;;25.02;3.80;;;;;;;1.84;100.00;98499.88;5060109;28;20573;-69
2023/12/21 03:16:54;;;;;;;27.55;3.45;;;;;;;1.69;100.00;98470.06;5078814;28;20060;-69
2023/12/21 03:19:19;;;;;;;21.45;3.22;;;;;;;1.63;100.00;98461.09;5060865;28;20560;-69
2023/12/21 03:21:45;;;;;;;28.50;3.67;;;;;;;1.78;100.00;98480.28;5060981;28;20043;-69
2023/12/21 03:24:10;;;;;;;28.25;4.18;;;;;;;1.78;100.00;98474.97;5079379;28;20483;-69
2023/12/21 03:26:36;;;;;;;27.65;4.22;;;;;;;1.78;100.00;98464.38;5061315;28;20039;-68
2023/12/21 03:29:01;;;;;;;25.85;4.03;;;;;;;1.57;100.00;98424.78;5061677;28;20115;-69
2023/12/21 03:31:26;;;;;;;26.73;3.80;;;;;;;1.72;100.00;98427.25;5061580;28;20470;-69
2023/12/21 03:33:52;;;;;;;27.02;3.90;;;;;;;1.58;100.00;98405.19;5061457;28;20024;-69
2023/12/21 03:36:17;;;;;;;21.30;3.25;;;;;;;1.75;100.00;98425.00;5079529;28;20032;-69
2023/12/21 03:38:42;;;;;;;23.42;3.42;;;;;;;1.77;100.00;98408.91;5062161;28;20043;-69
2023/12/21 03:41:10;;;;;;;28.95;3.75;;;;;;;1.65;100.00;98376.88;5043721;28;20472;-69
2023/12/21 03:43:36;;;;;;;29.83;4.22;;;;;;;1.81;100.00;98400.34;5060318;28;20036;-69
2023/12/21 03:46:02;;;;;;;33.55;4.18;;;;;;;1.78;100.00;98379.53;5075378;28;20043;-70
2023/12/21 03:48:28;;;;;;;33.42;3.75;;;;;;;1.86;100.00;98375.88;5078923;28;20387;-70
2023/12/21 03:50:53;;;;;;;27.60;3.33;;;;;;;1.87;100.00;98369.56;5081926;28;20016;-70
2023/12/21 03:53:19;;;;;;;27.80;3.10;;;;;;;1.91;100.00;98362.00;5045219;28;20032;-69
2023/12/21 03:55:44;;;;;;;26.88;3.10;;;;;;;1.92;100.00;98353.88;5078611;28;20028;-69
2023/12/21 03:58:10;;;;;;;24.58;3.55;;;;;;;1.96;100.00;98343.66;5060638;28;20388;-69
2023/12/21 04:00:35;;;;;;;25.60;4.00;;;;;;;1.96;100.00;98333.06;5060133;28;20448;-68
2023/12/21 04:03:01;;;;;;;22.42;3.25;;;;;;;1.96;100.00;98317.97;5076878;28;20024;-69
2023/12/21 04:05:27;;;;;;;30.63;3.92;;;;;;;1.99;100.00;98319.41;5078113;28;20029;-68
2023/12/21 04:07:52;;;;;;;25.77;3.38;;;;;;;2.05;100.00;98311.44;5077583;28;20059;-70
2023/12/21 04:10:17;;;;;;;30.98;4.63;;;;;;;2.05;100.00;98295.50;5077944;28;20024;-69
2023/12/21 04:12:43;;;;;;;25.52;3.38;;;;;;;2.10;100.00;98282.44;5076843;28;20028;-70
2023/12/21 04:15:11;;;;;;;27.60;4.13;;;;;;;2.04;100.00;98250.63;5025377;28;20683;-69
2023/12/21 04:17:36;;;;;;;38.95;3.80;;;;;;;2.23;100.00;98270.19;5076809;28;20043;-69
2023/12/21 04:20:02;;;;;;;26.58;3.25;;;;;;;2.27;100.00;98258.94;5077669;28;20032;-69
2023/12/21 04:22:27;;;;;;;22.65;3.25;;;;;;;2.16;100.00;98226.94;5076567;28;20025;-69
2023/12/21 04:24:52;;;;;;;22.40;3.20;;;;;;;2.31;100.00;98241.56;5043266;28;20058;-69
2023/12/21 04:27:18;;;;;;;22.10;3.22;;;;;;;2.32;100.00;98231.78;5077952;28;20029;-70
2023/12/21 04:29:43;;;;;;;22.92;3.17;;;;;;;2.32;100.00;98221.97;5077794;28;20504;-70
2023/12/21 04:32:08;;;;;;;21.90;3.53;;;;;;;2.35;100.00;98210.94;5076002;28;20020;-69
2023/12/21 04:34:34;;;;;;;24.42;3.30;;;;;;;2.37;100.00;98196.66;5043389;28;20036;-69
2023/12/21 04:36:59;;;;;;;24.90;3.17;;;;;;;2.38;100.00;98193.78;5077752;28;20050;-68
2023/12/21 04:39:25;;;;;;;26.30;3.33;;;;;;;2.39;100.00;98194.63;5042665;28;20115;-69
2023/12/21 04:41:50;;;;;;;20.85;3.22;;;;;;;2.24;100.00;98155.88;5077239;28;20044;-70
2023/12/21 04:44:16;;;;;;;22.58;3.00;;;;;;;2.44;100.00;98170.91;5077608;28;20032;-69
2023/12/21 04:46:44;;;;;;;17.58;2.63;;;;;;;2.40;100.00;98157.22;5077157;28;20034;-69
2023/12/21 04:49:09;;;;;;;25.42;3.53;;;;;;;2.48;100.00;98156.97;5059629;28;20036;-69
2023/12/21 04:51:35;;;;;;;19.67;2.70;;;;;;;2.50;100.00;98143.50;5058796;28;20025;-70
2023/12/21 04:54:00;;;;;;;18.75;2.80;;;;;;;2.52;100.00;98139.63;5059163;28;20024;-69
2023/12/21 04:56:25;;;;;;;24.92;3.45;;;;;;;2.37;100.00;98099.28;5025955;28;20074;-69
2023/12/21 04:58:51;;;;;;;24.77;3.08;;;;;;;2.58;100.00;98116.69;5059105;28;20616;-70
2023/12/21 05:01:16;;;;;;;21.80;3.30;;;;;;;2.51;100.00;98092.03;5076887;28;20032;-69
2023/12/21 05:03:41;;;;;;;23.80;3.05;;;;;;;2.63;100.00;98089.53;5059226;28;20129;-69
2023/12/21 05:06:07;;;;;;;23.13;3.70;;;;;;;2.51;100.00;98060.19;5077605;28;20513;-69
2023/12/21 05:08:32;;;;;;;27.35;3.65;;;;;;;2.66;100.00;98081.94;5076916;28;20051;-70
2023/12/21 05:10:57;;;;;;;22.60;3.95;;;;;;;2.71;100.00;98063.50;5076891;28;20025;-69
2023/12/21 05:13:23;;;;;;;20.88;3.92;;;;;;;2.77;100.00;98062.66;5060200;28;20056;-70
2023/12/21 05:15:48;;;;;;;23.90;4.00;;;;;;;2.78;100.00;98045.72;5044285;28;20047;-70
2023/12/21 05:18:14;;;;;;;25.25;4.30;;;;;;;2.77;100.00;98033.44;5060394;28;20040;-70
2023/12/21 05:20:39;;;;;;;25.08;5.22;;;;;;;2.73;100.00;98004.91;5026996;28;20112;-70
2023/12/21 05:23:06;;;;;;;27.48;5.45;;;;;;;2.85;100.00;98004.97;5060387;28;20062;-71
2023/12/21 05:25:31;;;;;;;23.35;4.97;;;;;;;2.71;100.00;97965.28;5079117;28;20041;-71
2023/12/21 05:27:57;;;;;;;27.10;5.70;;;;;;;2.75;100.00;97957.72;5061172;28;20032;-71
2023/12/21 05:30:23;;;;;;;26.00;5.97;;;;;;;2.83;100.00;97958.22;5044630;28;20090;-72
2023/12/21 05:32:49;;;;;;;31.13;5.85;;;;;;;2.87;100.00;97945.31;5063017;28;20021;-72
2023/12/21 05:35:14;;;;;;;23.33;5.05;;;;;;;2.73;100.00;97906.66;5045277;28;20070;-70
2023/12/21 05:37:40;;;;;;;31.60;6.35;;;;;;;2.88;100.00;97916.91;5060546;28;20020;-69
2023/12/21 05:40:06;;;;;;;25.38;6.20;;;;;;;2.89;100.00;97903.44;5043275;28;20051;-69
2023/12/21 05:42:32;;;;;;;22.15;5.78;;;;;;;2.84;100.00;97890.00;5078237;28;20084;-69
2023/12/21 05:44:58;;;;;;;26.38;4.88;;;;;;;2.70;100.00;97846.84;5079008;28;20032;-69
2023/12/21 05:47:23;;;;;;;24.77;5.45;;;;;;;2.74;100.00;97847.22;5043180;28;20418;-69
2023/12/21 05:49:49;;;;;;;17.95;4.40;;;;;;;2.39;100.00;97784.09;5077737;28;20064;-69
2023/12/21 05:52:14;;;;;;;19.45;4.72;;;;;;;2.77;100.00;97826.34;5043080;28;20031;-69
2023/12/21 05:54:40;;;;;;;23.95;4.45;;;;;;;2.73;100.00;97811.88;5078683;28;20048;-69
2023/12/21 05:57:05;;;;;;;25.48;4.03;;;;;;;2.70;100.00;97803.56;5059776;28;20029;-68
2023/12/21 05:59:30;;;;;;;23.48;4.28;;;;;;;2.63;100.00;97786.91;5059920;28;20414;-69
2023/12/21 06:01:56;;;;;;;18.88;3.55;;;;;;;2.59;100.00;97775.91;5060761;28;20114;-69
2023/12/21 06:04:21;;;;;;;17.33;4.28;;;;;;;2.56;100.00;97763.91;5056910;28;20111;-68
2023/12/21 06:06:47;;;;;;;24.83;3.90;;;;;;;2.54;100.00;97752.69;5076425;28;20100;-68
2023/12/21 06:09:13;;;;;;;22.30;4.35;;;;;;;2.52;100.00;97740.69;5078381;28;20050;-68
2023/12/21 06:11:38;;;;;;;25.85;5.35;;;;;;;2.52;100.00;97728.22;5078511;28;20013;-68
2023/12/21 06:14:04;;;;;;;22.48;4.43;;;;;;;2.53;100.00;97721.06;5043995;28;20024;-68
2023/12/21 06:16:29;;;;;;;29.50;4.88;;;;;;;2.42;100.00;97689.94;5078419;28;20033;-69
2023/12/21 06:18:55;;;;;;;20.85;5.28;;;;;;;2.51;100.00;97689.41;5058322;28;20033;-68
2023/12/21 06:21:22;;;;;;;23.80;4.47;;;;;;;2.52;100.00;97684.94;5057945;28;20040;-69
2023/12/21 06:23:47;;;;;;;20.48;4.95;;;;;;;2.47;100.00;97655.59;5057944;28;20086;-68
2023/12/21 06:26:13;;;;;;;13.88;4.32;;;;;;;2.51;100.00;97664.72;5059564;28;20288;-68
2023/12/21 06:28:38;;;;;;;19.15;5.70;;;;;;;2.50;100.00;97649.84;5079514;28;20036;-68
2023/12/21 06:31:04;;;;;;;24.40;5.35;;;;;;;2.53;100.00;97638.78;5079485;28;20028;-67
2023/12/21 06:33:30;;;;;;;18.35;4.60;;;;;;;2.52;100.00;97632.69;5062760;28;20036;-68
2023/12/21 06:35:55;;;;;;;20.77;5.28;;;;;;;2.53;100.00;97628.97;5047196;28;20055;-68
2023/12/21 06:38:21;;;;;;;15.48;4.22;;;;;;;2.54;100.00;97612.00;5081752;28;20021;-67
2023/12/21 06:40:46;;;;;;;12.68;4.55;;;;;;;2.45;100.00;97584.19;5078927;28;20064;-67
2023/12/21 06:43:12;;;;;;;12.63;3.78;;;;;;;2.48;100.00;97583.72;5079738;28;20032;-68
2023/12/21 06:45:37;;;;;;;12.55;3.63;;;;;;;2.48;100.00;97588.22;5063256;28;20028;-69
2023/12/21 06:48:03;;;;;;;14.43;3.70;;;;;;;2.41;100.00;97567.09;5081169;28;20029;-68
2023/12/21 06:50:28;;;;;;;8.98;3.45;;;;;;;2.38;100.00;97553.47;5081276;28;20032;-68
2023/12/21 06:52:54;;;;;;;12.85;3.15;;;;;;;2.33;100.00;97541.69;5063432;28;20039;-68
2023/12/21 06:55:19;;;;;;;11.48;3.70;;;;;;;2.23;100.00;97530.81;5079966;28;20031;-67
2023/12/21 06:57:45;;;;;;;10.65;3.47;;;;;;;2.16;100.00;97524.00;5079824;28;20095;-68
2023/12/21 07:00:11;;;;;;;8.43;2.38;;;;;;;1.99;100.00;97499.97;5079751;28;20028;-69
2023/12/21 07:02:36;;;;;;;8.52;2.38;;;;;;;1.96;100.00;97492.44;5062425;28;20509;-67
2023/12/21 07:05:03;;;;;;;5.55;1.77;;;;;;;1.93;100.00;97483.09;5061425;28;20040;-67
2023/12/21 07:07:29;;;;;;;4.70;0.93;;;;;;;1.82;100.00;97478.53;5079300;28;20024;-67
2023/12/21 07:09:54;;;;;;;6.53;1.30;;;;;;;1.69;100.00;97470.75;5079519;28;20124;-67
2023/12/21 07:12:20;;;;;;;3.70;0.90;;;;;;;1.55;100.00;97456.88;5061223;28;20092;-67
2023/12/21 07:14:46;;;;;;;4.35;0.60;;;;;;;1.40;100.00;97441.38;5060921;28;20056;-67
2023/12/21 07:17:12;;;;;;;5.50;0.85;;;;;;;1.23;100.00;97417.34;5060954;28;20043;-68
2023/12/21 07:19:38;;;;;;;5.80;0.80;;;;;;;1.17;100.00;97411.09;5061032;28;20028;-68
2023/12/21 07:22:04;;;;;;;5.40;0.88;;;;;;;1.09;100.00;97379.63;5062197;28;20111;-68
2023/12/21 07:24:30;;;;;;;3.90;0.85;;;;;;;1.07;100.00;97375.59;5060683;28;20033;-68
2023/12/21 07:26:56;;;;;;;4.90;0.80;;;;;;;1.06;100.00;97355.41;5042484;28;20035;-68
2023/12/21 07:29:21;;;;;;;5.43;1.15;;;;;;;0.93;100.00;97322.81;5060470;28;20024;-67
2023/12/21 07:31:46;;;;;;;10.38;0.85;;;;;;;1.07;100.00;97322.63;5078348;28;20052;-67
2023/12/21 07:34:12;;;;;;;14.15;0.98;;;;;;;1.09;100.00;97309.97;5060153;28;20043;-68
2023/12/21 07:36:37;;;;;;;6.35;0.90;;;;;;;1.08;100.00;97295.13;5059051;28;20039;-67
2023/12/21 07:39:04;;;;;;;8.07;0.82;;;;;;;0.82;100.00;97235.41;5060230;28;20042;-67
2023/12/21 07:41:30;;;;;;;10.73;1.00;;;;;;;0.87;100.00;97239.00;5077987;28;20044;-68
2023/12/21 07:43:55;;;;;;;7.93;0.88;;;;;;;0.98;100.00;97248.00;5060093;28;20033;-67
2023/12/21 07:46:21;;;;;;;9.60;0.60;;;;;;;0.96;100.00;97236.00;5043453;28;20028;-67
2023/12/21 07:48:46;;;;;;;2.78;0.50;;;;;;;0.97;100.00;97214.63;5060361;28;20031;-67
2023/12/21 07:51:12;;;;;;;6.55;0.52;;;;;;;0.98;100.00;97205.66;5059819;28;20029;-68
2023/12/21 07:53:37;;;;;;;3.03;0.45;;;;;;;0.94;100.00;97175.38;5043515;28;20051;-68
2023/12/21 07:56:03;;;;;;;4.38;0.68;;;;;;;0.98;100.00;97162.50;5060149;28;20108;-67
2023/12/21 07:58:28;;;;;;;2.85;0.40;;;;;;;1.06;100.00;97156.84;5043460;28;20090;-68
2023/12/21 08:00:55;;;;;;;3.78;0.45;;;;;;;1.10;100.00;97137.66;5060129;28;20028;-67
2023/12/21 08:03:21;;;;;;;1.15;0.50;;;;;;;1.13;100.00;97110.72;5060402;28;20035;-67
2023/12/21 08:05:46;;;;;;;1.38;0.30;;;;;;;1.21;100.00;97109.56;5078137;28;20040;-66
2023/12/21 08:08:11;;;;;;;1.38;0.30;;;;;;;1.26;100.00;97083.22;5059831;28;20039;-67
2023/12/21 08:10:37;;;;;;;3.40;0.50;;;;;;;1.31;100.00;97078.00;5043340;28;20033;-66
2023/12/21 08:13:02;;;;;;;2.90;0.50;;;;;;;1.35;100.00;97060.63;5077804;28;20036;-67
2023/12/21 08:15:28;;;;;;;1.10;0.22;;;;;;;1.40;100.00;97036.91;5043518;28;20115;-67
2023/12/21 08:17:56;;;;;;;1.77;0.30;;;;;;;1.52;100.00;97031.56;5059936;28;20066;-67
2023/12/21 08:20:24;;;;;;;3.20;0.35;;;;;;;1.61;100.00;97002.88;5059738;28;20498;-67
2023/12/21 08:22:49;;;;;;;3.72;0.40;;;;;;;1.66;100.00;96989.72;5077654;28;20055;-69
2023/12/21 08:25:15;;;;;;;2.45;0.40;;;;;;;1.72;100.00;96969.41;5059621;28;20048;-67
2023/12/21 08:27:44;;;;;;;3.28;0.45;;;;;;;1.80;100.00;96955.81;5059873;28;20024;-67
2023/12/21 08:30:10;;;;;;;3.15;0.40;;;;;;;1.95;100.00;96952.59;5043451;28;20025;-68
2023/12/21 08:32:36;;;;;;;3.13;0.57;;;;;;;2.07;100.00;96946.19;5059694;28;20082;-67
2023/12/21 08:35:01;;;;;;;7.75;0.93;;;;;;;2.24;100.00;96929.50;5059899;28;20037;-67
2023/12/21 08:37:27;;;;;;;18.38;1.80;;;;;;;2.31;100.00;96911.56;5059987;28;20029;-67
2023/12/21 08:39:52;;;;;;;4.10;0.63;;;;;;;2.47;100.00;96896.69;5044455;28;20025;-66
2023/12/21 08:42:18;;;;;;;11.10;1.45;;;;;;;2.61;100.00;96879.38;5060528;28;20059;-66
2023/12/21 08:44:43;;;;;;;13.60;1.27;;;;;;;2.70;100.00;96877.91;5079719;28;20489;-66
2023/12/21 08:47:08;;;;;;;11.75;1.30;;;;;;;2.87;100.00;96871.75;5063144;28;20059;-67
2023/12/21 08:49:34;;;;;;;19.63;1.60;;;;;;;2.91;100.00;96868.34;5062455;28;20066;-67
2023/12/21 08:51:59;;;;;;;23.60;2.40;;;;;;;3.02;100.00;96854.16;5081102;28;20059;-66
2023/12/21 08:54:25;;;;;;;17.38;2.03;;;;;;;3.13;100.00;96835.69;5080849;28;20044;-66
2023/12/21 08:56:51;;;;;;;20.75;1.80;;;;;;;3.19;100.00;96822.22;5080717;28;20032;-67
2023/12/21 08:59:17;;;;;;;20.38;1.92;;;;;;;3.20;100.00;96796.44;5046129;28;20047;-66
2023/12/21 09:01:43;;;;;;;22.70;2.00;;;;;;;3.32;100.00;96801.63;5063809;28;20071;-67
2023/12/21 09:04:08;;;;;;;23.90;2.45;;;;;;;3.32;100.00;96785.69;5046005;28;20032;-66
2023/12/21 09:06:34;;;;;;;25.33;1.90;;;;;;;3.38;100.00;96788.16;5063453;28;20036;-67
2023/12/21 09:08:59;;;;;;;22.60;2.50;;;;;;;3.19;100.00;96736.41;5049184;28;20062;-67
2023/12/21 09:11:27;;;;;;;14.90;2.03;;;;;;;3.46;100.00;96752.34;5083889;28;20110;-67
2023/12/21 09:13:55;;;;;;;17.33;1.92;;;;;;;3.50;100.00;96756.09;5065783;28;20046;-67
2023/12/21 09:16:21;;;;;;;20.27;2.30;;;;;;;3.54;100.00;96746.53;5064445;28;20118;-67
2023/12/21 09:18:47;;;;;;;15.18;1.80;;;;;;;3.57;100.00;96750.56;5088175;28;20020;-67
2023/12/21 09:21:13;;;;;;;15.65;1.70;;;;;;;3.62;100.00;96722.16;5086462;28;20036;-69
2023/12/21 09:23:39;;;;;;;13.50;1.60;;;;;;;3.56;100.00;96691.28;5067486;28;20028;-67
2023/12/21 09:26:10;;;;;;;21.02;2.05;;;;;;;3.78;100.00;96709.78;5087457;28;20036;-67
2023/12/21 09:28:37;;;;;;;10.88;1.25;;;;;;;3.75;100.00;96689.81;5088081;28;20032;-67
2023/12/21 09:31:03;;;;;;;23.20;2.13;;;;;;;3.91;100.00;96693.38;5088759;28;20300;-68
2023/12/21 09:33:33;;;;;;;17.80;1.90;;;;;;;4.00;100.00;96672.41;5070154;28;20052;-67
2023/12/21 09:35:58;;;;;;;19.83;2.17;;;;;;;3.91;100.00;96642.06;5088156;28;20020;-67
2023/12/21 09:38:24;;;;;;;15.13;2.00;;;;;;;4.16;100.00;96654.66;5088402;28;20024;-68
2023/12/21 09:40:50;;;;;;;21.92;3.17;;;;;;;4.09;100.00;96625.63;5088622;28;20049;-67
2023/12/21 09:43:17;;;;;;;14.75;1.90;;;;;;;4.28;100.00;96631.31;5070914;28;20044;-67
2023/12/21 09:45:47;;;;;;;21.25;2.20;;;;;;;4.37;100.00;96620.94;5070714;28;20020;-67
2023/12/21 09:48:15;;;;;;;27.80;2.60;;;;;;;4.45;100.00;96596.50;5069909;28;20116;-67
2023/12/21 09:50:45;;;;;;;21.23;2.30;;;;;;;4.52;100.00;96594.38;5088103;28;20024;-67
2023/12/21 09:53:12;;;;;;;22.60;2.22;;;;;;;4.57;100.00;96585.59;5087054;28;20025;-67
2023/12/21 09:55:46;;;;;;;16.23;1.80;;;;;;;4.58;100.00;96572.03;5070699;28;20096;-67
2023/12/21 09:58:12;;;;;;;15.63;2.10;;;;;;;4.53;100.00;96544.59;5086862;28;20050;-67
2023/12/21 10:00:39;;;;;;;23.33;2.50;;;;;;;4.76;100.00;96561.91;5086992;28;20024;-68
2023/12/21 10:03:05;;;;;;;22.77;2.17;;;;;;;4.69;100.00;96532.88;5090060;28;20046;-67
2023/12/21 10:05:31;;;;;;;24.42;2.83;;;;;;;4.82;100.00;96536.88;5053485;28;20036;-67
2023/12/21 10:07:57;;;;;;;22.30;2.13;;;;;;;4.77;100.00;96512.91;5069943;28;20032;-67
2023/12/21 10:10:23;;;;;;;26.00;2.63;;;;;;;4.91;100.00;96508.66;5085451;28;20025;-67
2023/12/21 10:12:48;;;;;;;16.20;2.25;;;;;;;4.94;100.00;96498.25;5084991;28;20028;-67
2023/12/21 10:15:16;;;;;;;13.82;1.58;;;;;;;4.99;100.00;96489.47;5081740;28;20246;-68
2023/12/21 10:17:42;;;;;;;12.80;1.67;;;;;;;5.08;100.00;96492.38;5063124;28;20078;-67
2023/12/21 10:20:11;;;;;;;10.48;1.30;;;;;;;5.10;100.00;96479.56;5045966;28;20065;-67
2023/12/21 10:22:39;;;;;;;13.57;1.50;;;;;;;5.14;100.00;96476.13;5081406;28;20020;-67
2023/12/21 10:25:04;;;;;;;13.68;1.95;;;;;;;5.15;100.00;96467.03;5079940;28;20089;-67
2023/12/21 10:27:30;;;;;;;7.88;1.38;;;;;;;5.18;100.00;96461.19;5062422;28;20063;-67
2023/12/21 10:29:56;;;;;;;12.68;1.38;;;;;;;5.18;100.00;96450.53;5062653;28;20035;-68
2023/12/21 10:32:22;;;;;;;14.23;1.67;;;;;;;5.19;100.00;96446.78;5062521;28;20020;-67
2023/12/21 10:34:48;;;;;;;13.88;1.75;;;;;;;5.21;100.00;96437.72;5080199;28;20037;-68
2023/12/21 10:37:15;;;;;;;15.27;1.77;;;;;;;5.22;100.00;96434.00;5079606;28;20024;-67
2023/12/21 10:39:40;;;;;;;15.77;1.40;;;;;;;5.21;100.00;96427.06;5079800;28;20031;-67
2023/12/21 10:42:06;;;;;;;11.80;1.33;;;;;;;5.15;100.00;96411.09;5079640;28;20044;-67
2023/12/21 10:44:31;;;;;;;17.02;1.90;;;;;;;5.22;100.00;96412.66;5079428;28;20039;-67
2023/12/21 10:46:57;;;;;;;14.63;2.13;;;;;;;5.13;100.00;96388.44;5062278;28;20047;-67
2023/12/21 10:49:24;;;;;;;15.57;2.28;;;;;;;5.15;100.00;96383.66;5063366;28;20031;-67
2023/12/21 10:51:50;;;;;;;18.13;2.78;;;;;;;5.30;100.00;96398.81;5063420;28;20032;-68
2023/12/21 10:54:20;;;;;;;19.70;2.42;;;;;;;5.32;100.00;96375.31;5063125;28;20091;-67
2023/12/21 10:56:46;;;;;;;22.48;3.28;;;;;;;5.36;100.00;96368.34;5063806;28;20437;-67
2023/12/21 10:59:13;;;;;;;25.23;3.10;;;;;;;5.41;100.00;96363.03;5063919;28;20043;-68
2023/12/21 11:01:40;;;;;;;26.25;3.40;;;;;;;5.28;100.00;96328.97;5063549;28;20038;-67
2023/12/21 11:04:08;;;;;;;34.13;3.65;;;;;;;5.47;100.00;96353.13;5058690;28;20088;-67
2023/12/21 11:06:36;;;;;;;40.13;4.53;;;;;;;5.42;100.00;96329.94;5080607;28;20024;-67
2023/12/21 11:09:06;;;;;;;36.05;3.83;;;;;;;5.38;100.00;96315.59;5081258;28;20100;-68
2023/12/21 11:11:34;;;;;;;41.90;3.90;;;;;;;5.51;100.00;96324.84;5063258;28;20025;-68
2023/12/21 11:13:59;;;;;;;42.38;4.35;;;;;;;5.53;100.00;96315.50;5063377;28;20051;-67
2023/12/21 11:16:32;;;;;;;53.17;5.38;;;;;;;5.54;100.00;96314.41;5061950;28;20024;-67
2023/12/21 11:19:02;;;;;;;41.60;4.80;;;;;;;5.55;100.00;96305.34;5062889;28;20107;-68